sensor_id;sensor_type;location;lat;lon;timestamp;P1;durP1;ratioP1;P2;durP2;ratioP2
73524;SDS011;61776;56.194;44.160;2022-07-18T05:19:20;13.32;;;8.10;;
73524;SDS011;61776;56.194;44.160;2022-07-18T05:21:46;11.63;;;7.65;;
73524;SDS011;61776;56.194;44.160;2022-07-18T05:24:13;12.45;;;7.95;;
73524;SDS011;61776;56.194;44.160;2022-07-18T05:26:40;10.77;;;7.77;;
73524;SDS011;61776;56.194;44.160;2022-07-18T05:29:05;11.75;;;8.10;;
73524;SDS011;61776;56.194;44.160;2022-07-18T05:31:31;12.90;;;7.97;;
73524;SDS011;61776;56.194;44.160;2022-07-18T05:33:57;9.63;;;8.07;;
73524;SDS011;61776;56.194;44.160;2022-07-18T05:36:23;10.95;;;7.53;;
73524;SDS011;61776;56.194;44.160;2022-07-18T05:38:52;12.38;;;8.02;;
73524;SDS011;61776;56.194;44.160;2022-07-18T05:41:18;12.23;;;7.32;;
73524;SDS011;61776;56.194;44.160;2022-07-18T05:43:43;10.93;;;7.27;;
73524;SDS011;61776;56.194;44.160;2022-07-18T05:46:09;12.00;;;7.80;;
73524;SDS011;61776;56.194;44.160;2022-07-18T05:48:35;11.43;;;8.00;;
73524;SDS011;61776;56.194;44.160;2022-07-18T05:51:01;9.57;;;7.90;;
73524;SDS011;61776;56.194;44.160;2022-07-18T05:53:27;10.75;;;8.10;;
73524;SDS011;61776;56.194;44.160;2022-07-18T05:55:52;11.30;;;8.70;;
73524;SDS011;61776;56.194;44.160;2022-07-18T05:58:18;10.52;;;7.70;;
73524;SDS011;61776;56.194;44.160;2022-07-18T06:00:44;10.32;;;7.15;;
73524;SDS011;61776;56.194;44.160;2022-07-18T06:03:10;10.35;;;7.35;;
73524;SDS011;61776;56.194;44.160;2022-07-18T06:05:36;10.57;;;7.50;;
73524;SDS011;61776;56.194;44.160;2022-07-18T06:08:02;11.60;;;7.10;;
73524;SDS011;61776;56.194;44.160;2022-07-18T06:10:28;11.57;;;7.25;;
73524;SDS011;61776;56.194;44.160;2022-07-18T06:12:54;8.38;;;6.28;;
73524;SDS011;61776;56.194;44.160;2022-07-18T06:15:20;7.00;;;5.90;;
73524;SDS011;61776;56.194;44.160;2022-07-18T06:17:46;10.55;;;5.00;;
73524;SDS011;61776;56.194;44.160;2022-07-18T06:20:13;8.10;;;5.88;;
73524;SDS011;61776;56.194;44.160;2022-07-18T06:22:40;7.07;;;5.18;;
73524;SDS011;61776;56.194;44.160;2022-07-18T06:25:06;7.30;;;5.13;;
73524;SDS011;61776;56.194;44.160;2022-07-18T06:27:32;7.57;;;5.20;;
73524;SDS011;61776;56.194;44.160;2022-07-18T06:29:58;6.55;;;5.28;;
73524;SDS011;61776;56.194;44.160;2022-07-18T06:32:24;9.13;;;4.85;;
73524;SDS011;61776;56.194;44.160;2022-07-18T06:34:50;6.70;;;4.97;;
73524;SDS011;61776;56.194;44.160;2022-07-18T06:37:16;8.17;;;5.23;;
73524;SDS011;61776;56.194;44.160;2022-07-18T06:39:42;7.25;;;5.18;;
73524;SDS011;61776;56.194;44.160;2022-07-18T06:42:08;8.00;;;5.47;;
73524;SDS011;61776;56.194;44.160;2022-07-18T06:44:33;5.97;;;4.73;;
73524;SDS011;61776;56.194;44.160;2022-07-18T06:46:59;6.20;;;4.75;;
73524;SDS011;61776;56.194;44.160;2022-07-18T06:49:25;9.13;;;4.70;;
73524;SDS011;61776;56.194;44.160;2022-07-18T06:51:51;7.30;;;5.07;;
73524;SDS011;61776;56.194;44.160;2022-07-18T06:54:17;5.88;;;4.65;;
73524;SDS011;61776;56.194;44.160;2022-07-18T06:56:43;7.97;;;5.30;;
73524;SDS011;61776;56.194;44.160;2022-07-18T06:59:09;8.27;;;4.37;;
73524;SDS011;61776;56.194;44.160;2022-07-18T07:01:35;6.10;;;4.88;;
73524;SDS011;61776;56.194;44.160;2022-07-18T07:04:01;7.47;;;4.00;;
73524;SDS011;61776;56.194;44.160;2022-07-18T07:06:27;6.33;;;4.07;;
73524;SDS011;61776;56.194;44.160;2022-07-18T07:08:52;5.03;;;4.13;;
73524;SDS011;61776;56.194;44.160;2022-07-18T07:11:18;5.20;;;4.25;;
73524;SDS011;61776;56.194;44.160;2022-07-18T07:13:47;4.20;;;3.53;;
73524;SDS011;61776;56.194;44.160;2022-07-18T07:16:13;5.17;;;3.73;;
73524;SDS011;61776;56.194;44.160;2022-07-18T07:18:39;5.60;;;3.67;;
73524;SDS011;61776;56.194;44.160;2022-07-18T07:21:06;5.03;;;4.00;;
73524;SDS011;61776;56.194;44.160;2022-07-18T07:23:33;4.78;;;3.67;;
73524;SDS011;61776;56.194;44.160;2022-07-18T07:25:59;6.30;;;3.90;;
73524;SDS011;61776;56.194;44.160;2022-07-18T07:28:25;4.70;;;3.65;;
73524;SDS011;61776;56.194;44.160;2022-07-18T07:30:51;5.13;;;3.72;;
73524;SDS011;61776;56.194;44.160;2022-07-18T07:33:17;6.60;;;3.85;;
73524;SDS011;61776;56.194;44.160;2022-07-18T07:35:43;5.10;;;4.33;;
73524;SDS011;61776;56.194;44.160;2022-07-18T07:38:09;6.38;;;4.50;;
73524;SDS011;61776;56.194;44.160;2022-07-18T07:40:35;8.63;;;4.22;;
73524;SDS011;61776;56.194;44.160;2022-07-18T07:43:08;5.90;;;4.05;;
73524;SDS011;61776;56.194;44.160;2022-07-18T07:45:37;6.93;;;3.92;;
73524;SDS011;61776;56.194;44.160;2022-07-18T07:48:03;6.80;;;3.87;;
73524;SDS011;61776;56.194;44.160;2022-07-18T07:50:29;4.68;;;3.55;;
73524;SDS011;61776;56.194;44.160;2022-07-18T07:52:56;6.45;;;3.55;;
73524;SDS011;61776;56.194;44.160;2022-07-18T07:55:22;5.28;;;3.53;;
73524;SDS011;61776;56.194;44.160;2022-07-18T07:57:48;6.70;;;3.40;;
73524;SDS011;61776;56.194;44.160;2022-07-18T08:00:15;7.30;;;3.10;;
73524;SDS011;61776;56.194;44.160;2022-07-18T08:05:38;8.05;;;3.25;;
73524;SDS011;61776;56.194;44.160;2022-07-18T08:08:09;8.75;;;3.63;;
73524;SDS011;61776;56.194;44.160;2022-07-18T08:10:35;4.30;;;3.13;;
73524;SDS011;61776;56.194;44.160;2022-07-18T08:13:01;5.13;;;3.15;;
73524;SDS011;61776;56.194;44.160;2022-07-18T08:15:27;9.90;;;3.30;;
73524;SDS011;61776;56.194;44.160;2022-07-18T08:17:53;4.60;;;3.28;;
73524;SDS011;61776;56.194;44.160;2022-07-18T08:20:19;5.07;;;3.13;;
73524;SDS011;61776;56.194;44.160;2022-07-18T08:22:59;4.88;;;3.38;;
73524;SDS011;61776;56.194;44.160;2022-07-18T08:25:30;8.73;;;4.00;;
73524;SDS011;61776;56.194;44.160;2022-07-18T08:27:57;4.63;;;3.78;;
73524;SDS011;61776;56.194;44.160;2022-07-18T08:30:24;5.55;;;3.15;;
73524;SDS011;61776;56.194;44.160;2022-07-18T08:32:49;4.63;;;3.63;;
73524;SDS011;61776;56.194;44.160;2022-07-18T08:35:16;4.72;;;3.47;;
73524;SDS011;61776;56.194;44.160;2022-07-18T08:37:42;5.95;;;3.53;;
73524;SDS011;61776;56.194;44.160;2022-07-18T08:40:08;6.53;;;3.83;;
73524;SDS011;61776;56.194;44.160;2022-07-18T08:42:34;5.70;;;3.90;;
73524;SDS011;61776;56.194;44.160;2022-07-18T08:45:02;5.53;;;3.90;;
73524;SDS011;61776;56.194;44.160;2022-07-18T08:47:29;6.53;;;4.13;;
73524;SDS011;61776;56.194;44.160;2022-07-18T08:49:56;8.32;;;4.20;;
73524;SDS011;61776;56.194;44.160;2022-07-18T08:52:23;6.82;;;4.07;;
73524;SDS011;61776;56.194;44.160;2022-07-18T08:54:49;5.40;;;4.30;;
73524;SDS011;61776;56.194;44.160;2022-07-18T08:57:15;6.53;;;4.68;;
73524;SDS011;61776;56.194;44.160;2022-07-18T08:59:42;5.68;;;4.53;;
73524;SDS011;61776;56.194;44.160;2022-07-18T09:06:16;7.47;;;4.57;;
73524;SDS011;61776;56.194;44.160;2022-07-18T09:09:29;7.53;;;4.60;;
73524;SDS011;61776;56.194;44.160;2022-07-18T09:13:50;11.82;;;5.50;;
73524;SDS011;61776;56.194;44.160;2022-07-18T09:16:29;6.22;;;4.85;;
73524;SDS011;61776;56.194;44.160;2022-07-18T09:34:36;9.38;;;5.95;;
73524;SDS011;61776;56.194;44.160;2022-07-18T09:37:03;6.45;;;5.18;;
73524;SDS011;61776;56.194;44.160;2022-07-18T09:39:30;6.57;;;5.07;;
73524;SDS011;61776;56.194;44.160;2022-07-18T09:42:11;6.90;;;5.30;;
73524;SDS011;61776;56.194;44.160;2022-07-18T09:44:41;7.10;;;4.85;;
73524;SDS011;61776;56.194;44.160;2022-07-18T09:47:07;6.72;;;5.15;;
73524;SDS011;61776;56.194;44.160;2022-07-18T09:49:33;11.77;;;5.00;;
73524;SDS011;61776;56.194;44.160;2022-07-18T09:52:07;7.05;;;4.60;;
73524;SDS011;61776;56.194;44.160;2022-07-18T09:54:38;7.35;;;4.82;;
73524;SDS011;61776;56.194;44.160;2022-07-18T09:57:07;8.05;;;4.88;;
73524;SDS011;61776;56.194;44.160;2022-07-18T09:59:36;7.95;;;5.10;;
73524;SDS011;61776;56.194;44.160;2022-07-18T10:02:03;7.40;;;4.60;;
73524;SDS011;61776;56.194;44.160;2022-07-18T10:04:29;5.88;;;4.45;;
73524;SDS011;61776;56.194;44.160;2022-07-18T10:06:56;9.45;;;5.25;;
73524;SDS011;61776;56.194;44.160;2022-07-18T10:09:22;7.15;;;5.32;;
73524;SDS011;61776;56.194;44.160;2022-07-18T10:11:48;8.90;;;5.78;;
73524;SDS011;61776;56.194;44.160;2022-07-18T10:14:14;6.90;;;4.60;;
73524;SDS011;61776;56.194;44.160;2022-07-18T10:16:40;12.23;;;5.25;;
73524;SDS011;61776;56.194;44.160;2022-07-18T10:19:06;9.70;;;5.90;;
73524;SDS011;61776;56.194;44.160;2022-07-18T10:21:32;8.00;;;5.72;;
73524;SDS011;61776;56.194;44.160;2022-07-18T10:23:59;6.90;;;5.32;;
73524;SDS011;61776;56.194;44.160;2022-07-18T10:26:27;6.60;;;5.10;;
73524;SDS011;61776;56.194;44.160;2022-07-18T10:31:25;8.23;;;5.35;;
73524;SDS011;61776;56.194;44.160;2022-07-18T10:36:30;7.53;;;5.85;;
73524;SDS011;61776;56.194;44.160;2022-07-18T10:39:06;10.97;;;6.27;;
73524;SDS011;61776;56.194;44.160;2022-07-18T10:57:36;9.20;;;5.05;;
73524;SDS011;61776;56.194;44.160;2022-07-18T11:00:34;10.65;;;6.13;;
73524;SDS011;61776;56.194;44.160;2022-07-18T11:03:06;9.00;;;4.83;;
73524;SDS011;61776;56.194;44.160;2022-07-18T11:05:36;9.15;;;3.55;;
73524;SDS011;61776;56.194;44.160;2022-07-18T11:23:51;11.70;;;4.10;;
73524;SDS011;61776;56.194;44.160;2022-07-18T11:26:19;12.98;;;4.72;;
73524;SDS011;61776;56.194;44.160;2022-07-18T11:28:47;12.55;;;5.32;;
73524;SDS011;61776;56.194;44.160;2022-07-18T11:31:14;14.52;;;5.38;;
73524;SDS011;61776;56.194;44.160;2022-07-18T11:33:47;11.60;;;4.40;;
73524;SDS011;61776;56.194;44.160;2022-07-18T11:36:15;8.10;;;3.93;;
73524;SDS011;61776;56.194;44.160;2022-07-18T11:38:46;12.82;;;4.47;;
73524;SDS011;61776;56.194;44.160;2022-07-18T11:41:14;10.77;;;4.80;;
73524;SDS011;61776;56.194;44.160;2022-07-18T11:44:15;5.80;;;2.83;;
73524;SDS011;61776;56.194;44.160;2022-07-18T11:46:43;10.10;;;3.67;;
73524;SDS011;61776;56.194;44.160;2022-07-18T11:49:10;11.90;;;6.10;;
73524;SDS011;61776;56.194;44.160;2022-07-18T11:51:36;10.68;;;3.65;;
73524;SDS011;61776;56.194;44.160;2022-07-18T11:54:07;8.65;;;3.58;;
73524;SDS011;61776;56.194;44.160;2022-07-18T11:56:34;9.50;;;3.63;;
73524;SDS011;61776;56.194;44.160;2022-07-18T11:59:10;7.82;;;3.95;;
73524;SDS011;61776;56.194;44.160;2022-07-18T12:01:36;10.00;;;3.07;;
73524;SDS011;61776;56.194;44.160;2022-07-18T12:04:02;10.13;;;3.65;;
73524;SDS011;61776;56.194;44.160;2022-07-18T12:06:28;9.45;;;3.70;;
73524;SDS011;61776;56.194;44.160;2022-07-18T12:08:55;7.80;;;3.20;;
73524;SDS011;61776;56.194;44.160;2022-07-18T12:18:54;9.40;;;4.57;;
73524;SDS011;61776;56.194;44.160;2022-07-18T12:21:23;11.82;;;6.53;;
73524;SDS011;61776;56.194;44.160;2022-07-18T12:23:49;7.93;;;5.43;;
73524;SDS011;61776;56.194;44.160;2022-07-18T12:26:31;9.82;;;6.10;;
73524;SDS011;61776;56.194;44.160;2022-07-18T12:29:04;9.90;;;6.32;;
73524;SDS011;61776;56.194;44.160;2022-07-18T12:31:43;10.20;;;5.78;;
73524;SDS011;61776;56.194;44.160;2022-07-18T12:34:11;9.13;;;5.15;;
73524;SDS011;61776;56.194;44.160;2022-07-18T12:36:55;8.53;;;4.50;;
73524;SDS011;61776;56.194;44.160;2022-07-18T12:39:25;5.63;;;3.70;;
73524;SDS011;61776;56.194;44.160;2022-07-18T12:41:52;8.02;;;3.80;;
73524;SDS011;61776;56.194;44.160;2022-07-18T12:44:18;7.63;;;4.68;;
73524;SDS011;61776;56.194;44.160;2022-07-18T12:46:44;8.97;;;4.47;;
73524;SDS011;61776;56.194;44.160;2022-07-18T12:49:10;5.53;;;3.80;;
73524;SDS011;61776;56.194;44.160;2022-07-18T12:51:35;6.07;;;3.92;;
73524;SDS011;61776;56.194;44.160;2022-07-18T12:54:02;5.85;;;3.50;;
73524;SDS011;61776;56.194;44.160;2022-07-18T12:56:27;6.93;;;3.33;;
73524;SDS011;61776;56.194;44.160;2022-07-18T12:58:53;8.02;;;3.20;;
73524;SDS011;61776;56.194;44.160;2022-07-18T13:01:19;7.00;;;3.83;;
73524;SDS011;61776;56.194;44.160;2022-07-18T13:03:45;5.32;;;3.17;;
73524;SDS011;61776;56.194;44.160;2022-07-18T13:06:11;6.13;;;2.90;;
73524;SDS011;61776;56.194;44.160;2022-07-18T13:08:37;6.53;;;2.73;;
73524;SDS011;61776;56.194;44.160;2022-07-18T13:11:02;4.93;;;3.10;;
73524;SDS011;61776;56.194;44.160;2022-07-18T13:13:28;4.90;;;2.53;;
73524;SDS011;61776;56.194;44.160;2022-07-18T13:15:54;5.53;;;2.73;;
73524;SDS011;61776;56.194;44.160;2022-07-18T13:18:20;5.25;;;2.80;;
73524;SDS011;61776;56.194;44.160;2022-07-18T13:20:46;5.22;;;2.53;;
73524;SDS011;61776;56.194;44.160;2022-07-18T13:23:12;3.27;;;1.90;;
73524;SDS011;61776;56.194;44.160;2022-07-18T13:25:39;5.47;;;2.58;;
73524;SDS011;61776;56.194;44.160;2022-07-18T13:28:05;5.05;;;2.55;;
73524;SDS011;61776;56.194;44.160;2022-07-18T13:30:31;3.70;;;2.30;;
73524;SDS011;61776;56.194;44.160;2022-07-18T13:32:57;4.03;;;2.22;;
73524;SDS011;61776;56.194;44.160;2022-07-18T13:35:23;4.93;;;2.38;;
73524;SDS011;61776;56.194;44.160;2022-07-18T13:37:49;3.13;;;1.80;;
73524;SDS011;61776;56.194;44.160;2022-07-18T13:40:15;4.27;;;1.87;;
73524;SDS011;61776;56.194;44.160;2022-07-18T13:42:41;4.18;;;2.38;;
73524;SDS011;61776;56.194;44.160;2022-07-18T13:45:07;5.63;;;2.38;;
73524;SDS011;61776;56.194;44.160;2022-07-18T13:47:34;3.97;;;2.25;;
73524;SDS011;61776;56.194;44.160;2022-07-18T13:49:59;4.17;;;2.10;;
73524;SDS011;61776;56.194;44.160;2022-07-18T13:52:25;4.15;;;2.03;;
73524;SDS011;61776;56.194;44.160;2022-07-18T13:54:51;4.55;;;2.45;;
73524;SDS011;61776;56.194;44.160;2022-07-18T13:57:20;5.03;;;2.05;;
73524;SDS011;61776;56.194;44.160;2022-07-18T13:59:46;4.23;;;1.80;;
73524;SDS011;61776;56.194;44.160;2022-07-18T14:02:12;6.60;;;2.72;;
73524;SDS011;61776;56.194;44.160;2022-07-18T14:04:38;4.22;;;2.50;;
73524;SDS011;61776;56.194;44.160;2022-07-18T14:07:03;4.70;;;2.60;;
73524;SDS011;61776;56.194;44.160;2022-07-18T14:09:31;6.70;;;2.92;;
73524;SDS011;61776;56.194;44.160;2022-07-18T14:11:57;5.65;;;2.90;;
73524;SDS011;61776;56.194;44.160;2022-07-18T14:14:22;4.63;;;2.90;;
73524;SDS011;61776;56.194;44.160;2022-07-18T14:16:48;5.32;;;3.00;;
73524;SDS011;61776;56.194;44.160;2022-07-18T14:19:14;6.82;;;3.38;;
73524;SDS011;61776;56.194;44.160;2022-07-18T14:21:40;4.83;;;3.10;;
73524;SDS011;61776;56.194;44.160;2022-07-18T14:24:06;5.70;;;4.20;;
73524;SDS011;61776;56.194;44.160;2022-07-18T14:26:32;6.00;;;3.63;;
73524;SDS011;61776;56.194;44.160;2022-07-18T14:28:57;6.73;;;3.40;;
73524;SDS011;61776;56.194;44.160;2022-07-18T14:31:23;6.30;;;3.83;;
73524;SDS011;61776;56.194;44.160;2022-07-18T14:33:49;8.70;;;4.45;;
73524;SDS011;61776;56.194;44.160;2022-07-18T14:36:15;7.27;;;3.83;;
73524;SDS011;61776;56.194;44.160;2022-07-18T14:38:41;7.93;;;3.90;;
73524;SDS011;61776;56.194;44.160;2022-07-18T14:41:07;7.55;;;4.00;;
73524;SDS011;61776;56.194;44.160;2022-07-18T14:43:33;7.50;;;3.58;;
73524;SDS011;61776;56.194;44.160;2022-07-18T14:45:59;8.03;;;3.97;;
73524;SDS011;61776;56.194;44.160;2022-07-18T14:48:25;6.67;;;3.40;;
73524;SDS011;61776;56.194;44.160;2022-07-18T14:50:50;6.32;;;4.00;;
73524;SDS011;61776;56.194;44.160;2022-07-18T14:53:16;6.87;;;3.73;;
73524;SDS011;61776;56.194;44.160;2022-07-18T14:55:42;6.07;;;3.77;;
73524;SDS011;61776;56.194;44.160;2022-07-18T14:58:09;6.13;;;3.55;;
73524;SDS011;61776;56.194;44.160;2022-07-18T15:00:35;6.53;;;3.60;;
73524;SDS011;61776;56.194;44.160;2022-07-18T15:03:01;6.45;;;3.70;;
73524;SDS011;61776;56.194;44.160;2022-07-18T15:05:26;7.07;;;3.60;;
73524;SDS011;61776;56.194;44.160;2022-07-18T15:07:52;7.18;;;3.70;;
73524;SDS011;61776;56.194;44.160;2022-07-18T15:10:18;5.40;;;3.47;;
73524;SDS011;61776;56.194;44.160;2022-07-18T15:12:44;5.05;;;3.10;;
73524;SDS011;61776;56.194;44.160;2022-07-18T15:15:10;5.75;;;3.03;;
73524;SDS011;61776;56.194;44.160;2022-07-18T15:17:36;6.13;;;3.47;;
73524;SDS011;61776;56.194;44.160;2022-07-18T15:20:03;5.67;;;3.57;;
73524;SDS011;61776;56.194;44.160;2022-07-18T15:22:30;5.68;;;3.33;;
73524;SDS011;61776;56.194;44.160;2022-07-18T15:24:56;6.43;;;3.40;;
73524;SDS011;61776;56.194;44.160;2022-07-18T15:27:22;6.22;;;3.00;;
73524;SDS011;61776;56.194;44.160;2022-07-18T15:29:47;6.47;;;3.17;;
73524;SDS011;61776;56.194;44.160;2022-07-18T15:32:13;6.35;;;2.88;;
73524;SDS011;61776;56.194;44.160;2022-07-18T15:34:39;6.43;;;3.55;;
73524;SDS011;61776;56.194;44.160;2022-07-18T15:37:05;6.60;;;3.80;;
73524;SDS011;61776;56.194;44.160;2022-07-18T15:39:31;7.63;;;3.65;;
73524;SDS011;61776;56.194;44.160;2022-07-18T15:41:58;5.55;;;3.63;;
73524;SDS011;61776;56.194;44.160;2022-07-18T15:44:24;5.82;;;3.88;;
73524;SDS011;61776;56.194;44.160;2022-07-18T15:46:50;5.77;;;3.50;;
73524;SDS011;61776;56.194;44.160;2022-07-18T15:49:17;7.55;;;3.28;;
73524;SDS011;61776;56.194;44.160;2022-07-18T15:51:43;5.18;;;3.30;;
73524;SDS011;61776;56.194;44.160;2022-07-18T15:54:12;7.68;;;3.05;;
73524;SDS011;61776;56.194;44.160;2022-07-18T15:57:17;8.15;;;3.28;;
73524;SDS011;61776;56.194;44.160;2022-07-18T16:00:48;7.97;;;3.03;;
73524;SDS011;61776;56.194;44.160;2022-07-18T16:07:47;5.55;;;2.60;;
73524;SDS011;61776;56.194;44.160;2022-07-18T16:11:18;5.53;;;2.60;;
73524;SDS011;61776;56.194;44.160;2022-07-18T16:18:16;4.27;;;2.77;;
73524;SDS011;61776;56.194;44.160;2022-07-18T16:36:07;6.68;;;3.70;;
73524;SDS011;61776;56.194;44.160;2022-07-18T16:38:33;5.63;;;3.53;;
73524;SDS011;61776;56.194;44.160;2022-07-18T16:40:59;6.95;;;3.90;;
73524;SDS011;61776;56.194;44.160;2022-07-18T16:43:26;8.00;;;4.25;;
73524;SDS011;61776;56.194;44.160;2022-07-18T16:45:51;6.80;;;4.13;;
73524;SDS011;61776;56.194;44.160;2022-07-18T16:48:17;6.55;;;4.10;;
73524;SDS011;61776;56.194;44.160;2022-07-18T16:50:44;10.60;;;4.73;;
73524;SDS011;61776;56.194;44.160;2022-07-18T16:53:10;6.90;;;4.75;;
73524;SDS011;61776;56.194;44.160;2022-07-18T16:55:38;9.35;;;5.13;;
73524;SDS011;61776;56.194;44.160;2022-07-18T16:58:05;7.80;;;4.35;;
73524;SDS011;61776;56.194;44.160;2022-07-18T17:00:32;9.98;;;5.45;;
73524;SDS011;61776;56.194;44.160;2022-07-18T17:02:59;7.27;;;4.40;;
73524;SDS011;61776;56.194;44.160;2022-07-18T17:05:27;10.63;;;4.53;;
73524;SDS011;61776;56.194;44.160;2022-07-18T17:07:53;8.45;;;4.55;;
73524;SDS011;61776;56.194;44.160;2022-07-18T17:10:19;9.20;;;5.10;;
73524;SDS011;61776;56.194;44.160;2022-07-18T17:12:48;11.57;;;5.20;;
73524;SDS011;61776;56.194;44.160;2022-07-18T17:15:15;10.82;;;5.50;;
73524;SDS011;61776;56.194;44.160;2022-07-18T17:17:43;25.45;;;12.07;;
73524;SDS011;61776;56.194;44.160;2022-07-18T17:20:10;18.60;;;10.73;;
73524;SDS011;61776;56.194;44.160;2022-07-18T17:22:36;16.85;;;11.23;;
73524;SDS011;61776;56.194;44.160;2022-07-18T17:25:03;19.03;;;11.77;;
73524;SDS011;61776;56.194;44.160;2022-07-18T17:27:33;19.17;;;11.30;;
73524;SDS011;61776;56.194;44.160;2022-07-18T17:29:59;18.60;;;10.85;;
73524;SDS011;61776;56.194;44.160;2022-07-18T17:32:26;18.02;;;10.15;;
73524;SDS011;61776;56.194;44.160;2022-07-18T17:34:52;20.25;;;11.40;;
73524;SDS011;61776;56.194;44.160;2022-07-18T17:37:19;20.47;;;10.90;;
73524;SDS011;61776;56.194;44.160;2022-07-18T17:39:46;18.90;;;11.52;;
73524;SDS011;61776;56.194;44.160;2022-07-18T17:42:17;17.77;;;9.90;;
73524;SDS011;61776;56.194;44.160;2022-07-18T17:44:44;15.45;;;9.10;;
73524;SDS011;61776;56.194;44.160;2022-07-18T17:47:36;16.08;;;9.85;;
73524;SDS011;61776;56.194;44.160;2022-07-18T17:50:10;13.73;;;9.20;;
73524;SDS011;61776;56.194;44.160;2022-07-18T17:52:37;16.15;;;9.02;;
73524;SDS011;61776;56.194;44.160;2022-07-18T17:55:04;12.32;;;8.27;;
73524;SDS011;61776;56.194;44.160;2022-07-18T17:57:31;16.65;;;8.23;;
73524;SDS011;61776;56.194;44.160;2022-07-18T17:59:57;16.85;;;9.15;;
73524;SDS011;61776;56.194;44.160;2022-07-18T18:02:24;17.93;;;8.47;;
73524;SDS011;61776;56.194;44.160;2022-07-18T18:04:50;17.77;;;8.32;;
73524;SDS011;61776;56.194;44.160;2022-07-18T18:07:16;13.88;;;8.10;;
73524;SDS011;61776;56.194;44.160;2022-07-18T18:09:43;12.38;;;7.53;;
73524;SDS011;61776;56.194;44.160;2022-07-18T18:12:08;14.30;;;8.13;;
73524;SDS011;61776;56.194;44.160;2022-07-18T18:14:34;11.93;;;7.80;;
73524;SDS011;61776;56.194;44.160;2022-07-18T18:17:01;14.73;;;7.28;;
73524;SDS011;61776;56.194;44.160;2022-07-18T18:19:30;16.02;;;8.95;;
73524;SDS011;61776;56.194;44.160;2022-07-18T18:21:57;15.63;;;8.32;;
73524;SDS011;61776;56.194;44.160;2022-07-18T18:24:22;17.70;;;9.75;;
73524;SDS011;61776;56.194;44.160;2022-07-18T18:26:49;19.43;;;10.57;;
73524;SDS011;61776;56.194;44.160;2022-07-18T18:29:15;22.40;;;12.07;;
73524;SDS011;61776;56.194;44.160;2022-07-18T18:31:41;25.17;;;13.35;;
73524;SDS011;61776;56.194;44.160;2022-07-18T18:34:07;22.33;;;11.52;;
73524;SDS011;61776;56.194;44.160;2022-07-18T18:36:34;24.97;;;12.80;;
73524;SDS011;61776;56.194;44.160;2022-07-18T18:39:18;29.88;;;14.30;;
73524;SDS011;61776;56.194;44.160;2022-07-18T18:41:44;26.25;;;13.30;;
73524;SDS011;61776;56.194;44.160;2022-07-18T18:44:10;25.63;;;13.95;;
73524;SDS011;61776;56.194;44.160;2022-07-18T18:46:35;28.80;;;14.50;;
73524;SDS011;61776;56.194;44.160;2022-07-18T18:49:02;27.80;;;15.55;;
73524;SDS011;61776;56.194;44.160;2022-07-18T18:51:28;27.73;;;14.45;;
73524;SDS011;61776;56.194;44.160;2022-07-18T18:53:55;18.63;;;11.55;;
73524;SDS011;61776;56.194;44.160;2022-07-18T18:56:21;20.43;;;11.03;;
73524;SDS011;61776;56.194;44.160;2022-07-18T18:58:47;20.70;;;10.73;;
73524;SDS011;61776;56.194;44.160;2022-07-18T19:01:13;22.83;;;12.23;;
73524;SDS011;61776;56.194;44.160;2022-07-18T19:03:39;20.90;;;11.60;;
73524;SDS011;61776;56.194;44.160;2022-07-18T19:06:04;26.63;;;12.77;;
73524;SDS011;61776;56.194;44.160;2022-07-18T19:08:30;18.20;;;10.77;;
73524;SDS011;61776;56.194;44.160;2022-07-18T19:10:57;19.35;;;10.85;;
73524;SDS011;61776;56.194;44.160;2022-07-18T19:13:22;19.10;;;11.27;;
73524;SDS011;61776;56.194;44.160;2022-07-18T19:15:49;19.42;;;10.75;;
73524;SDS011;61776;56.194;44.160;2022-07-18T19:18:20;24.80;;;10.73;;
73524;SDS011;61776;56.194;44.160;2022-07-18T19:20:46;19.23;;;10.88;;
73524;SDS011;61776;56.194;44.160;2022-07-18T19:23:13;17.40;;;10.27;;
73524;SDS011;61776;56.194;44.160;2022-07-18T19:25:40;16.48;;;9.45;;
73524;SDS011;61776;56.194;44.160;2022-07-18T19:28:06;28.52;;;17.02;;
73524;SDS011;61776;56.194;44.160;2022-07-18T19:30:33;24.77;;;13.82;;
73524;SDS011;61776;56.194;44.160;2022-07-18T19:33:00;24.85;;;13.48;;
73524;SDS011;61776;56.194;44.160;2022-07-18T19:35:27;17.57;;;11.87;;
73524;SDS011;61776;56.194;44.160;2022-07-18T19:37:52;21.80;;;12.60;;
73524;SDS011;61776;56.194;44.160;2022-07-18T19:40:18;24.90;;;14.35;;
73524;SDS011;61776;56.194;44.160;2022-07-18T19:42:46;29.77;;;15.50;;
73524;SDS011;61776;56.194;44.160;2022-07-18T19:45:12;30.00;;;17.30;;
73524;SDS011;61776;56.194;44.160;2022-07-18T19:47:38;27.10;;;14.15;;
73524;SDS011;61776;56.194;44.160;2022-07-18T19:50:06;22.35;;;11.73;;
73524;SDS011;61776;56.194;44.160;2022-07-18T19:52:32;16.47;;;9.37;;
73524;SDS011;61776;56.194;44.160;2022-07-18T19:54:58;16.63;;;9.70;;
73524;SDS011;61776;56.194;44.160;2022-07-18T19:57:25;21.38;;;10.65;;
73524;SDS011;61776;56.194;44.160;2022-07-18T19:59:51;18.00;;;10.23;;
73524;SDS011;61776;56.194;44.160;2022-07-18T20:02:18;19.05;;;11.48;;
73524;SDS011;61776;56.194;44.160;2022-07-18T20:04:43;26.38;;;11.75;;
73524;SDS011;61776;56.194;44.160;2022-07-18T20:07:09;20.13;;;9.30;;
73524;SDS011;61776;56.194;44.160;2022-07-18T20:09:35;16.23;;;9.30;;
73524;SDS011;61776;56.194;44.160;2022-07-18T20:12:01;14.27;;;9.17;;
73524;SDS011;61776;56.194;44.160;2022-07-18T20:14:27;15.15;;;8.63;;
73524;SDS011;61776;56.194;44.160;2022-07-18T20:16:55;12.43;;;8.60;;
73524;SDS011;61776;56.194;44.160;2022-07-18T20:19:21;15.45;;;8.93;;
73524;SDS011;61776;56.194;44.160;2022-07-18T20:21:47;13.70;;;7.73;;
73524;SDS011;61776;56.194;44.160;2022-07-18T20:24:13;11.73;;;8.02;;
73524;SDS011;61776;56.194;44.160;2022-07-18T20:26:39;15.48;;;8.40;;
73524;SDS011;61776;56.194;44.160;2022-07-18T20:29:05;13.57;;;7.82;;
73524;SDS011;61776;56.194;44.160;2022-07-18T20:31:31;12.73;;;8.30;;
73524;SDS011;61776;56.194;44.160;2022-07-18T20:33:57;12.32;;;8.15;;
73524;SDS011;61776;56.194;44.160;2022-07-18T20:36:22;12.13;;;7.40;;
73524;SDS011;61776;56.194;44.160;2022-07-18T20:38:49;14.53;;;7.63;;
73524;SDS011;61776;56.194;44.160;2022-07-18T20:41:15;14.18;;;7.50;;
73524;SDS011;61776;56.194;44.160;2022-07-18T20:43:42;14.32;;;7.70;;
73524;SDS011;61776;56.194;44.160;2022-07-18T20:46:08;13.63;;;7.85;;
73524;SDS011;61776;56.194;44.160;2022-07-18T20:48:34;11.13;;;7.93;;
73524;SDS011;61776;56.194;44.160;2022-07-18T20:51:00;12.25;;;8.23;;
73524;SDS011;61776;56.194;44.160;2022-07-18T20:53:26;15.02;;;8.98;;
73524;SDS011;61776;56.194;44.160;2022-07-18T20:55:51;14.57;;;9.20;;
73524;SDS011;61776;56.194;44.160;2022-07-18T20:58:17;15.00;;;9.80;;
73524;SDS011;61776;56.194;44.160;2022-07-18T21:00:43;15.38;;;9.45;;
73524;SDS011;61776;56.194;44.160;2022-07-18T21:03:11;15.98;;;9.82;;
73524;SDS011;61776;56.194;44.160;2022-07-18T21:05:37;15.20;;;10.53;;
73524;SDS011;61776;56.194;44.160;2022-07-18T21:08:03;17.23;;;11.02;;
73524;SDS011;61776;56.194;44.160;2022-07-18T21:10:29;16.02;;;10.93;;
73524;SDS011;61776;56.194;44.160;2022-07-18T21:12:55;18.17;;;11.13;;
73524;SDS011;61776;56.194;44.160;2022-07-18T21:15:21;21.70;;;11.70;;
73524;SDS011;61776;56.194;44.160;2022-07-18T21:17:48;17.95;;;11.18;;
73524;SDS011;61776;56.194;44.160;2022-07-18T21:20:16;18.47;;;11.80;;